sensor_id;sensor_type;location;lat;lon;timestamp;pressure;altitude;pressure_sealevel;temperature;humidity
37202;BME280;37799;52.390;6.136;2024-03-25T00:00:17;100653.34;;;5.53;100.00
37202;BME280;37799;52.390;6.136;2024-03-25T00:02:43;100644.81;;;5.49;100.00
37202;BME280;37799;52.390;6.136;2024-03-25T00:05:09;100644.00;;;5.47;100.00
37202;BME280;37799;52.390;6.136;2024-03-25T00:07:35;100647.38;;;5.51;100.00
37202;BME280;37799;52.390;6.136;2024-03-25T00:10:01;100653.34;;;5.53;100.00
37202;BME280;37799;52.390;6.136;2024-03-25T00:12:26;100649.88;;;5.58;100.00
37202;BME280;37799;52.390;6.136;2024-03-25T00:14:52;100642.28;;;5.43;100.00
37202;BME280;37799;52.390;6.136;2024-03-25T00:17:17;100651.69;;;5.46;100.00
37202;BME280;37799;52.390;6.136;2024-03-25T00:19:42;100650.84;;;5.48;100.00
37202;BME280;37799;52.390;6.136;2024-03-25T00:22:08;100645.81;;;5.30;100.00
37202;BME280;37799;52.390;6.136;2024-03-25T00:24:33;100647.50;;;5.36;100.00
37202;BME280;37799;52.390;6.136;2024-03-25T00:26:58;100648.38;;;5.30;100.00
37202;BME280;37799;52.390;6.136;2024-03-25T00:29:24;100645.88;;;5.24;100.00
37202;BME280;37799;52.390;6.136;2024-03-25T00:31:52;100652.63;;;5.32;100.00
37202;BME280;37799;52.390;6.136;2024-03-25T00:34:17;100651.78;;;5.33;100.00
37202;BME280;37799;52.390;6.136;2024-03-25T00:36:42;100652.72;;;5.20;100.00
37202;BME280;37799;52.390;6.136;2024-03-25T00:39:08;100647.63;;;5.17;100.00
37202;BME280;37799;52.390;6.136;2024-03-25T00:41:33;100652.66;;;5.29;100.00
37202;BME280;37799;52.390;6.136;2024-03-25T00:43:58;100648.44;;;5.24;100.00
37202;BME280;37799;52.390;6.136;2024-03-25T00:46:24;100637.28;;;5.29;100.00
37202;BME280;37799;52.390;6.136;2024-03-25T00:48:49;100641.44;;;5.44;100.00
37202;BME280;37799;52.390;6.136;2024-03-25T00:51:14;100643.88;;;5.58;100.00
37202;BME280;37799;52.390;6.136;2024-03-25T00:53:40;100642.28;;;5.45;100.00
37202;BME280;37799;52.390;6.136;2024-03-25T00:56:05;100648.97;;;5.64;100.00
37202;BME280;37799;52.390;6.136;2024-03-25T00:58:30;100638.00;;;5.44;100.00
37202;BME280;37799;52.390;6.136;2024-03-25T01:00:56;100645.75;;;5.41;100.00
37202;BME280;37799;52.390;6.136;2024-03-25T01:03:21;100644.81;;;5.51;100.00
37202;BME280;37799;52.390;6.136;2024-03-25T01:05:47;100639.69;;;5.49;100.00
37202;BME280;37799;52.390;6.136;2024-03-25T01:08:12;100644.75;;;5.55;100.00
37202;BME280;37799;52.390;6.136;2024-03-25T01:10:39;100639.75;;;5.40;100.00
37202;BME280;37799;52.390;6.136;2024-03-25T01:13:05;100640.00;;;5.08;100.00
37202;BME280;37799;52.390;6.136;2024-03-25T01:15:30;100643.50;;;4.95;100.00
37202;BME280;37799;52.390;6.136;2024-03-25T01:17:56;100650.41;;;4.85;100.00
37202;BME280;37799;52.390;6.136;2024-03-25T01:20:21;100648.69;;;4.84;100.00
37202;BME280;37799;52.390;6.136;2024-03-25T01:22:46;100647.00;;;4.77;100.00
37202;BME280;37799;52.390;6.136;2024-03-25T01:25:12;100647.06;;;4.68;100.00
37202;BME280;37799;52.390;6.136;2024-03-25T01:27:37;100642.84;;;4.53;100.00
37202;BME280;37799;52.390;6.136;2024-03-25T01:30:02;100625.81;;;4.38;100.00
37202;BME280;37799;52.390;6.136;2024-03-25T01:32:29;100626.72;;;4.27;100.00
37202;BME280;37799;52.390;6.136;2024-03-25T01:34:55;100624.19;;;4.16;100.00
37202;BME280;37799;52.390;6.136;2024-03-25T01:37:20;100627.63;;;4.10;100.00
37202;BME280;37799;52.390;6.136;2024-03-25T01:39:46;100634.47;;;4.10;100.00
37202;BME280;37799;52.390;6.136;2024-03-25T01:42:11;100641.28;;;4.12;100.00
37202;BME280;37799;52.390;6.136;2024-03-25T01:44:38;100643.03;;;4.00;100.00
37202;BME280;37799;52.390;6.136;2024-03-25T01:47:03;100637.91;;;3.98;100.00
37202;BME280;37799;52.390;6.136;2024-03-25T01:49:29;100634.50;;;3.96;100.00
37202;BME280;37799;52.390;6.136;2024-03-25T01:51:54;100639.63;;;3.87;100.00
37202;BME280;37799;52.390;6.136;2024-03-25T01:54:20;100641.34;;;3.88;100.00
37202;BME280;37799;52.390;6.136;2024-03-25T01:56:47;100648.19;;;3.95;100.00
37202;BME280;37799;52.390;6.136;2024-03-25T01:59:13;100646.41;;;4.12;100.00
37202;BME280;37799;52.390;6.136;2024-03-25T02:01:41;100645.53;;;4.30;100.00
37202;BME280;37799;52.390;6.136;2024-03-25T02:04:06;100643.03;;;4.07;100.00
37202;BME280;37799;52.390;6.136;2024-03-25T02:06:33;100648.97;;;4.14;100.00
37202;BME280;37799;52.390;6.136;2024-03-25T02:08:59;100655.78;;;4.17;100.00
37202;BME280;37799;52.390;6.136;2024-03-25T02:11:25;100646.47;;;3.91;100.00
37202;BME280;37799;52.390;6.136;2024-03-25T02:13:51;100648.19;;;3.84;100.00
37202;BME280;37799;52.390;6.136;2024-03-25T02:16:17;100643.91;;;3.85;100.00
37202;BME280;37799;52.390;6.136;2024-03-25T02:18:42;100651.63;;;3.73;100.00
37202;BME280;37799;52.390;6.136;2024-03-25T02:21:08;100658.44;;;3.86;100.00
37202;BME280;37799;52.390;6.136;2024-03-25T02:23:33;100649.06;;;3.82;100.00
37202;BME280;37799;52.390;6.136;2024-03-25T02:25:59;100647.34;;;3.69;100.00
37202;BME280;37799;52.390;6.136;2024-03-25T02:28:24;100648.19;;;3.62;100.00
37202;BME280;37799;52.390;6.136;2024-03-25T02:30:50;100653.31;;;3.62;100.00
37202;BME280;37799;52.390;6.136;2024-03-25T02:33:15;100644.78;;;3.64;100.00
37202;BME280;37799;52.390;6.136;2024-03-25T02:35:41;100644.78;;;3.78;100.00
37202;BME280;37799;52.390;6.136;2024-03-25T02:38:07;100639.66;;;3.75;100.00
37202;BME280;37799;52.390;6.136;2024-03-25T02:40:34;100649.91;;;3.81;100.00
37202;BME280;37799;52.390;6.136;2024-03-25T02:43:00;100641.38;;;3.79;100.00
37202;BME280;37799;52.390;6.136;2024-03-25T02:45:25;100642.22;;;3.81;100.00
37202;BME280;37799;52.390;6.136;2024-03-25T02:47:50;100649.03;;;3.85;100.00
37202;BME280;37799;52.390;6.136;2024-03-25T02:50:16;100649.03;;;3.91;100.00
37202;BME280;37799;52.390;6.136;2024-03-25T02:52:41;100655.84;;;4.01;100.00
37202;BME280;37799;52.390;6.136;2024-03-25T02:55:07;100660.94;;;4.01;100.00
37202;BME280;37799;52.390;6.136;2024-03-25T02:57:32;100661.81;;;3.97;100.00
37202;BME280;37799;52.390;6.136;2024-03-25T02:59:57;100653.28;;;3.89;100.00
37202;BME280;37799;52.390;6.136;2024-03-25T03:02:23;100655.84;;;3.88;100.00
37202;BME280;37799;52.390;6.136;2024-03-25T03:04:48;100652.44;;;3.87;100.00
37202;BME280;37799;52.390;6.136;2024-03-25T03:07:13;100649.03;;;3.83;100.00
37202;BME280;37799;52.390;6.136;2024-03-25T03:09:39;100656.72;;;3.88;100.00
37202;BME280;37799;52.390;6.136;2024-03-25T03:12:04;100665.22;;;4.02;100.00
37202;BME280;37799;52.390;6.136;2024-03-25T03:14:30;100666.97;;;3.87;100.00
37202;BME280;37799;52.390;6.136;2024-03-25T03:16:55;100668.66;;;4.04;100.00
37202;BME280;37799;52.390;6.136;2024-03-25T03:19:25;100668.66;;;4.07;100.00
37202;BME280;37799;52.390;6.136;2024-03-25T03:21:50;100674.59;;;4.12;100.00
37202;BME280;37799;52.390;6.136;2024-03-25T03:24:16;100672.94;;;3.90;100.00
37202;BME280;37799;52.390;6.136;2024-03-25T03:26:41;100683.16;;;4.19;100.00
37202;BME280;37799;52.390;6.136;2024-03-25T03:29:06;100677.16;;;4.14;100.00
37202;BME280;37799;52.390;6.136;2024-03-25T03:31:31;100664.38;;;4.17;100.00
37202;BME280;37799;52.390;6.136;2024-03-25T03:33:57;100670.38;;;4.05;100.00
37202;BME280;37799;52.390;6.136;2024-03-25T03:36:22;100677.97;;;4.33;100.00
37202;BME280;37799;52.390;6.136;2024-03-25T03:38:50;100682.34;;;3.94;100.00
37202;BME280;37799;52.390;6.136;2024-03-25T03:41:16;100679.72;;;4.14;100.00
37202;BME280;37799;52.390;6.136;2024-03-25T03:43:42;100682.28;;;4.15;100.00
37202;BME280;37799;52.390;6.136;2024-03-25T03:46:07;100678.91;;;4.00;100.00
37202;BME280;37799;52.390;6.136;2024-03-25T03:48:32;100686.59;;;4.04;100.00
37202;BME280;37799;52.390;6.136;2024-03-25T03:50:58;100678.06;;;3.89;100.00
37202;BME280;37799;52.390;6.136;2024-03-25T03:53:23;100675.50;;;3.98;100.00
37202;BME280;37799;52.390;6.136;2024-03-25T03:55:55;100676.34;;;4.06;100.00
37202;BME280;37799;52.390;6.136;2024-03-25T03:58:21;100684.03;;;4.07;100.00
37202;BME280;37799;52.390;6.136;2024-03-25T04:00:47;100687.41;;;4.03;100.00
37202;BME280;37799;52.390;6.136;2024-03-25T04:03:12;100683.16;;;3.99;100.00
37202;BME280;37799;52.390;6.136;2024-03-25T04:05:38;100672.06;;;3.90;100.00
37202;BME280;37799;52.390;6.136;2024-03-25T04:08:03;100675.50;;;3.75;100.00
37202;BME280;37799;52.390;6.136;2024-03-25T04:10:29;100677.22;;;3.94;100.00
37202;BME280;37799;52.390;6.136;2024-03-25T04:12:54;100675.53;;;3.81;100.00
37202;BME280;37799;52.390;6.136;2024-03-25T04:15:21;100662.72;;;3.70;100.00
37202;BME280;37799;52.390;6.136;2024-03-25T04:17:47;100666.16;;;3.55;100.00
37202;BME280;37799;52.390;6.136;2024-03-25T04:20:14;100656.75;;;3.56;100.00
37202;BME280;37799;52.390;6.136;2024-03-25T04:22:43;100668.69;;;3.80;100.00
37202;BME280;37799;52.390;6.136;2024-03-25T04:25:10;100665.28;;;3.61;100.00
37202;BME280;37799;52.390;6.136;2024-03-25T04:27:38;100661.88;;;3.59;100.00
37202;BME280;37799;52.390;6.136;2024-03-25T04:30:04;100663.56;;;3.57;100.00
37202;BME280;37799;52.390;6.136;2024-03-25T04:32:30;100661.84;;;3.62;100.00
37202;BME280;37799;52.390;6.136;2024-03-25T04:34:55;100666.13;;;3.62;100.00
37202;BME280;37799;52.390;6.136;2024-03-25T04:37:20;100667.84;;;3.53;100.00
37202;BME280;37799;52.390;6.136;2024-03-25T04:39:46;100663.59;;;3.52;100.00
37202;BME280;37799;52.390;6.136;2024-03-25T04:42:11;100658.44;;;3.49;100.00
37202;BME280;37799;52.390;6.136;2024-03-25T04:44:37;100661.84;;;3.50;100.00
37202;BME280;37799;52.390;6.136;2024-03-25T04:47:02;100666.97;;;3.48;100.00
37202;BME280;37799;52.390;6.136;2024-03-25T04:49:27;100672.94;;;3.47;100.00
37202;BME280;37799;52.390;6.136;2024-03-25T04:51:52;100672.97;;;3.41;100.00
37202;BME280;37799;52.390;6.136;2024-03-25T04:54:18;100672.09;;;3.45;100.00
37202;BME280;37799;52.390;6.136;2024-03-25T04:56:43;100658.47;;;3.55;100.00
37202;BME280;37799;52.390;6.136;2024-03-25T04:59:09;100664.41;;;3.30;100.00
37202;BME280;37799;52.390;6.136;2024-03-25T05:01:34;100666.97;;;3.36;100.00
37202;BME280;37799;52.390;6.136;2024-03-25T05:04:02;100661.84;;;3.21;100.00
37202;BME280;37799;52.390;6.136;2024-03-25T05:06:27;100661.81;;;3.10;100.00
37202;BME280;37799;52.390;6.136;2024-03-25T05:08:52;100666.06;;;2.97;100.00
37202;BME280;37799;52.390;6.136;2024-03-25T05:11:18;100671.19;;;3.11;100.00
37202;BME280;37799;52.390;6.136;2024-03-25T05:13:43;100662.69;;;3.20;100.00
37202;BME280;37799;52.390;6.136;2024-03-25T05:16:08;100668.66;;;3.10;100.00
37202;BME280;37799;52.390;6.136;2024-03-25T05:18:34;100668.66;;;3.05;100.00
37202;BME280;37799;52.390;6.136;2024-03-25T05:20:59;100672.06;;;3.00;100.00
37202;BME280;37799;52.390;6.136;2024-03-25T05:23:24;100677.16;;;3.06;100.00
37202;BME280;37799;52.390;6.136;2024-03-25T05:25:49;100678.88;;;3.01;100.00
37202;BME280;37799;52.390;6.136;2024-03-25T05:28:15;100680.59;;;3.11;100.00
37202;BME280;37799;52.390;6.136;2024-03-25T05:30:40;100681.47;;;3.22;100.00
37202;BME280;37799;52.390;6.136;2024-03-25T05:33:05;100678.06;;;3.34;100.00
37202;BME280;37799;52.390;6.136;2024-03-25T05:35:30;100692.59;;;3.47;100.00
37202;BME280;37799;52.390;6.136;2024-03-25T05:37:58;100691.72;;;3.51;100.00
37202;BME280;37799;52.390;6.136;2024-03-25T05:40:24;100690.88;;;3.60;100.00
37202;BME280;37799;52.390;6.136;2024-03-25T05:42:49;100690.91;;;3.66;100.00
37202;BME280;37799;52.390;6.136;2024-03-25T05:45:15;100691.75;;;3.78;100.00
37202;BME280;37799;52.390;6.136;2024-03-25T05:47:40;100697.72;;;3.94;100.00
37202;BME280;37799;52.390;6.136;2024-03-25T05:50:06;100699.38;;;4.01;100.00
37202;BME280;37799;52.390;6.136;2024-03-25T05:52:33;100692.50;;;4.34;100.00
37202;BME280;37799;52.390;6.136;2024-03-25T05:54:58;100701.94;;;4.15;100.00
37202;BME280;37799;52.390;6.136;2024-03-25T05:57:23;100704.50;;;4.23;100.00
37202;BME280;37799;52.390;6.136;2024-03-25T05:59:49;100702.75;;;4.28;100.00
37202;BME280;37799;52.390;6.136;2024-03-25T06:02:14;100713.88;;;4.30;100.00
37202;BME280;37799;52.390;6.136;2024-03-25T06:04:39;100708.72;;;4.28;100.00
37202;BME280;37799;52.390;6.136;2024-03-25T06:07:05;100707.91;;;4.31;100.00
37202;BME280;37799;52.390;6.136;2024-03-25T06:09:30;100701.94;;;4.20;100.00
37202;BME280;37799;52.390;6.136;2024-03-25T06:11:55;100702.78;;;4.25;100.00
37202;BME280;37799;52.390;6.136;2024-03-25T06:14:21;100699.31;;;4.38;100.00
37202;BME280;37799;52.390;6.136;2024-03-25T06:16:46;100703.63;;;4.16;100.00
37202;BME280;37799;52.390;6.136;2024-03-25T06:19:11;100702.78;;;4.15;100.00
37202;BME280;37799;52.390;6.136;2024-03-25T06:21:37;100700.25;;;3.99;100.00
37202;BME280;37799;52.390;6.136;2024-03-25T06:24:03;100694.28;;;4.07;100.00
37202;BME280;37799;52.390;6.136;2024-03-25T06:26:28;100695.13;;;4.17;100.00
37202;BME280;37799;52.390;6.136;2024-03-25T06:28:53;100697.63;;;4.43;100.00
37202;BME280;37799;52.390;6.136;2024-03-25T06:31:19;100694.19;;;4.29;100.00
37202;BME280;37799;52.390;6.136;2024-03-25T06:34:03;100697.59;;;4.44;100.00
37202;BME280;37799;52.390;6.136;2024-03-25T06:36:43;100694.13;;;4.53;100.00
37202;BME280;37799;52.390;6.136;2024-03-25T06:39:10;100694.13;;;4.53;100.00
37202;BME280;37799;52.390;6.136;2024-03-25T06:41:35;100700.88;;;4.83;100.00
37202;BME280;37799;52.390;6.136;2024-03-25T06:44:03;100701.78;;;4.70;100.00
37202;BME280;37799;52.390;6.136;2024-03-25T06:46:30;100700.91;;;4.72;100.00
37202;BME280;37799;52.390;6.136;2024-03-25T06:48:55;100701.72;;;4.79;100.00
37202;BME280;37799;52.390;6.136;2024-03-25T06:51:20;100704.22;;;4.96;100.00
37202;BME280;37799;52.390;6.136;2024-03-25T06:53:46;100702.44;;;5.06;100.00
37202;BME280;37799;52.390;6.136;2024-03-25T06:56:11;100698.09;;;5.20;100.00
37202;BME280;37799;52.390;6.136;2024-03-25T06:58:36;100703.13;;;5.32;100.00
37202;BME280;37799;52.390;6.136;2024-03-25T07:01:08;100697.88;;;5.53;100.00
37202;BME280;37799;52.390;6.136;2024-03-25T07:03:35;100707.22;;;5.62;100.00
37202;BME280;37799;52.390;6.136;2024-03-25T07:06:01;100708.84;;;5.71;100.00
37202;BME280;37799;52.390;6.136;2024-03-25T07:08:27;100706.75;;;6.17;100.00
37202;BME280;37799;52.390;6.136;2024-03-25T07:10:53;100711.97;;;6.08;100.00
37202;BME280;37799;52.390;6.136;2024-03-25T07:13:19;100710.25;;;6.13;100.00
37202;BME280;37799;52.390;6.136;2024-03-25T07:15:44;100707.78;;;6.01;100.00
37202;BME280;37799;52.390;6.136;2024-03-25T07:18:10;100713.53;;;6.26;100.00
37202;BME280;37799;52.390;6.136;2024-03-25T07:20:39;100716.31;;;6.04;100.00
37202;BME280;37799;52.390;6.136;2024-03-25T07:23:04;100715.34;;;6.16;100.00
37202;BME280;37799;52.390;6.136;2024-03-25T07:25:30;100718.13;;;5.93;100.00
37202;BME280;37799;52.390;6.136;2024-03-25T07:27:56;100717.31;;;5.86;100.00
37202;BME280;37799;52.390;6.136;2024-03-25T07:30:21;100716.50;;;5.78;100.00
37202;BME280;37799;52.390;6.136;2024-03-25T07:32:54;100726.88;;;5.68;100.00
37202;BME280;37799;52.390;6.136;2024-03-25T07:35:19;100711.97;;;6.08;100.00
37202;BME280;37799;52.390;6.136;2024-03-25T07:37:45;100724.34;;;6.57;100.00
37202;BME280;37799;52.390;6.136;2024-03-25T07:40:10;100724.00;;;6.84;100.00
37202;BME280;37799;52.390;6.136;2024-03-25T07:42:38;100726.88;;;7.27;100.00
37202;BME280;37799;52.390;6.136;2024-03-25T07:45:04;100723.91;;;7.53;100.00
37202;BME280;37799;52.390;6.136;2024-03-25T07:47:31;100735.91;;;8.08;100.00
37202;BME280;37799;52.390;6.136;2024-03-25T07:49:57;100732.88;;;8.36;100.00
37202;BME280;37799;52.390;6.136;2024-03-25T07:52:22;100731.81;;;8.46;100.00
37202;BME280;37799;52.390;6.136;2024-03-25T07:54:47;100741.72;;;8.67;100.00
37202;BME280;37799;52.390;6.136;2024-03-25T07:57:12;100737.22;;;8.78;100.00
37202;BME280;37799;52.390;6.136;2024-03-25T07:59:38;100728.47;;;9.26;100.00
37202;BME280;37799;52.390;6.136;2024-03-25T08:02:03;100723.47;;;9.55;100.00
37202;BME280;37799;52.390;6.136;2024-03-25T08:04:29;100726.44;;;9.74;100.00
37202;BME280;37799;52.390;6.136;2024-03-25T08:06:54;100727.09;;;9.84;100.00
37202;BME280;37799;52.390;6.136;2024-03-25T08:09:19;100728.78;;;9.85;100.00
37202;BME280;37799;52.390;6.136;2024-03-25T08:11:48;100731.56;;;10.11;100.00
37202;BME280;37799;52.390;6.136;2024-03-25T08:14:13;100733.81;;;9.91;100.00
37202;BME280;37799;52.390;6.136;2024-03-25T08:16:39;100741.38;;;9.98;100.00
37202;BME280;37799;52.390;6.136;2024-03-25T08:19:04;100741.06;;;10.11;100.00
37202;BME280;37799;52.390;6.136;2024-03-25T08:21:31;100743.94;;;10.34;100.00
37202;BME280;37799;52.390;6.136;2024-03-25T08:23:56;100753.50;;;10.63;100.00
37202;BME280;37799;52.390;6.136;2024-03-25T08:26:21;100756.53;;;10.79;100.00
37202;BME280;37799;52.390;6.136;2024-03-25T08:28:47;100757.25;;;11.13;100.00
37202;BME280;37799;52.390;6.136;2024-03-25T08:31:14;100763.03;;;11.23;100.00
37202;BME280;37799;52.390;6.136;2024-03-25T08:33:39;100758.97;;;10.85;100.00
37202;BME280;37799;52.390;6.136;2024-03-25T08:36:04;100762.31;;;10.88;100.00
37202;BME280;37799;52.390;6.136;2024-03-25T08:38:30;100757.06;;;10.90;100.00
37202;BME280;37799;52.390;6.136;2024-03-25T08:40:55;100747.88;;;11.09;100.00
37202;BME280;37799;52.390;6.136;2024-03-25T08:43:20;100755.41;;;11.17;100.00
37202;BME280;37799;52.390;6.136;2024-03-25T08:45:46;100748.22;;;11.27;100.00
37202;BME280;37799;52.390;6.136;2024-03-25T08:48:12;100753.25;;;11.31;100.00
37202;BME280;37799;52.390;6.136;2024-03-25T08:50:37;100751.53;;;11.60;100.00
37202;BME280;37799;52.390;6.136;2024-03-25T08:53:03;100758.41;;;11.61;100.00
37202;BME280;37799;52.390;6.136;2024-03-25T08:55:29;100744.50;;;11.63;100.00
37202;BME280;37799;52.390;6.136;2024-03-25T08:57:54;100757.88;;;11.77;100.00
37202;BME280;37799;52.390;6.136;2024-03-25T09:00:20;100758.19;;;11.95;100.00
37202;BME280;37799;52.390;6.136;2024-03-25T09:02:45;100752.47;;;12.12;100.00
37202;BME280;37799;52.390;6.136;2024-03-25T09:05:11;100754.75;;;12.21;100.00
37202;BME280;37799;52.390;6.136;2024-03-25T09:07:38;100750.16;;;11.76;100.00
37202;BME280;37799;52.390;6.136;2024-03-25T09:10:04;100756.50;;;11.94;100.00
37202;BME280;37799;52.390;6.136;2024-03-25T09:12:48;100744.34;;;12.46;100.00
37202;BME280;37799;52.390;6.136;2024-03-25T09:15:13;100756.03;;;12.82;100.00
37202;BME280;37799;52.390;6.136;2024-03-25T09:17:39;100744.91;;;13.02;100.00
37202;BME280;37799;52.390;6.136;2024-03-25T09:20:06;100748.00;;;13.35;94.02
37202;BME280;37799;52.390;6.136;2024-03-25T09:22:49;100749.50;;;12.95;91.44
37202;BME280;37799;52.390;6.136;2024-03-25T09:25:15;100756.47;;;12.70;87.07
37202;BME280;37799;52.390;6.136;2024-03-25T09:27:41;100748.59;;;12.23;87.26
37202;BME280;37799;52.390;6.136;2024-03-25T09:30:06;100742.38;;;11.76;96.86
37202;BME280;37799;52.390;6.136;2024-03-25T09:32:34;100750.44;;;11.67;100.00
37202;BME280;37799;52.390;6.136;2024-03-25T09:34:59;100740.66;;;11.19;99.28
37202;BME280;37799;52.390;6.136;2024-03-25T09:37:24;100745.16;;;11.14;100.00
37202;BME280;37799;52.390;6.136;2024-03-25T09:39:50;100744.41;;;11.10;100.00
37202;BME280;37799;52.390;6.136;2024-03-25T09:42:21;100738.78;;;10.96;100.00
37202;BME280;37799;52.390;6.136;2024-03-25T09:44:48;100738.66;;;11.29;100.00
37202;BME280;37799;52.390;6.136;2024-03-25T09:47:14;100740.00;;;11.68;100.00
37202;BME280;37799;52.390;6.136;2024-03-25T09:49:40;100757.81;;;12.32;91.21
37202;BME280;37799;52.390;6.136;2024-03-25T09:52:06;100758.16;;;12.71;81.59
37202;BME280;37799;52.390;6.136;2024-03-25T09:54:33;100757.84;;;13.04;81.08
37202;BME280;37799;52.390;6.136;2024-03-25T09:57:00;100764.97;;;12.98;76.38
37202;BME280;37799;52.390;6.136;2024-03-25T09:59:26;100753.88;;;12.70;82.06
37202;BME280;37799;52.390;6.136;2024-03-25T10:01:53;100756.97;;;12.56;80.32
37202;BME280;37799;52.390;6.136;2024-03-25T10:04:19;100755.22;;;12.57;79.44
37202;BME280;37799;52.390;6.136;2024-03-25T10:06:44;100751.03;;;12.03;82.35
37202;BME280;37799;52.390;6.136;2024-03-25T10:09:10;100742.97;;;11.84;90.68
37202;BME280;37799;52.390;6.136;2024-03-25T10:11:36;100745.63;;;11.82;86.02
37202;BME280;37799;52.390;6.136;2024-03-25T10:14:01;100745.41;;;11.62;87.61
37202;BME280;37799;52.390;6.136;2024-03-25T10:16:27;100738.22;;;11.70;86.85
37202;BME280;37799;52.390;6.136;2024-03-25T10:18:53;100739.13;;;11.96;84.27
37202;BME280;37799;52.390;6.136;2024-03-25T10:21:20;100740.28;;;12.14;79.82
37202;BME280;37799;52.390;6.136;2024-03-25T10:23:45;100743.34;;;12.50;74.42
37202;BME280;37799;52.390;6.136;2024-03-25T10:26:25;100739.03;;;12.50;72.00
37202;BME280;37799;52.390;6.136;2024-03-25T10:28:58;100738.63;;;12.61;69.61
37202;BME280;37799;52.390;6.136;2024-03-25T10:31:24;100736.09;;;12.34;69.59
37202;BME280;37799;52.390;6.136;2024-03-25T10:33:49;100736.63;;;12.19;67.02
37202;BME280;37799;52.390;6.136;2024-03-25T10:36:15;100739.41;;;12.39;68.37
37202;BME280;37799;52.390;6.136;2024-03-25T10:38:40;100730.53;;;12.20;73.37
37202;BME280;37799;52.390;6.136;2024-03-25T10:41:08;100727.31;;;12.38;73.51
37202;BME280;37799;52.390;6.136;2024-03-25T10:43:35;100717.06;;;13.06;72.52
37202;BME280;37799;52.390;6.136;2024-03-25T10:46:02;100715.72;;;13.19;68.66
37202;BME280;37799;52.390;6.136;2024-03-25T10:48:31;100720.25;;;13.36;67.41
37202;BME280;37799;52.390;6.136;2024-03-25T10:50:56;100717.41;;;13.42;65.91
37202;BME280;37799;52.390;6.136;2024-03-25T10:53:24;100714.75;;;13.43;67.15
37202;BME280;37799;52.390;6.136;2024-03-25T10:55:54;100707.09;;;13.82;66.46
37202;BME280;37799;52.390;6.136;2024-03-25T10:58:21;100717.44;;;14.04;61.71
37202;BME280;37799;52.390;6.136;2024-03-25T11:00:48;100711.63;;;14.38;61.20
37202;BME280;37799;52.390;6.136;2024-03-25T11:03:14;100717.88;;;14.55;58.60
37202;BME280;37799;52.390;6.136;2024-03-25T11:05:39;100712.84;;;14.70;58.97
37202;BME280;37799;52.390;6.136;2024-03-25T11:08:15;100716.88;;;14.59;55.77
37202;BME280;37799;52.390;6.136;2024-03-25T11:10:42;100703.13;;;14.93;56.97
37202;BME280;37799;52.390;6.136;2024-03-25T11:13:11;100707.47;;;14.55;56.85
37202;BME280;37799;52.390;6.136;2024-03-25T11:15:40;100699.47;;;14.18;56.69
37202;BME280;37799;52.390;6.136;2024-03-25T11:18:11;100700.19;;;14.22;55.19
37202;BME280;37799;52.390;6.136;2024-03-25T11:20:39;100690.50;;;14.26;54.18
37202;BME280;37799;52.390;6.136;2024-03-25T11:23:12;100686.38;;;14.61;56.05
37202;BME280;37799;52.390;6.136;2024-03-25T11:25:38;100683.22;;;14.73;53.69
37202;BME280;37799;52.390;6.136;2024-03-25T11:28:04;100686.78;;;14.70;53.26
37202;BME280;37799;52.390;6.136;2024-03-25T11:30:31;100682.78;;;14.63;53.74
37202;BME280;37799;52.390;6.136;2024-03-25T11:32:58;100691.66;;;14.39;52.39
37202;BME280;37799;52.390;6.136;2024-03-25T11:35:25;100679.78;;;14.32;55.55
37202;BME280;37799;52.390;6.136;2024-03-25T11:37:51;100667.47;;;14.56;57.77
37202;BME280;37799;52.390;6.136;2024-03-25T11:40:17;100671.88;;;14.74;55.92
37202;BME280;37799;52.390;6.136;2024-03-25T11:42:43;100670.25;;;14.71;57.38
37202;BME280;37799;52.390;6.136;2024-03-25T11:45:22;100662.53;;;14.50;52.65
37202;BME280;37799;52.390;6.136;2024-03-25T11:47:49;100668.03;;;14.23;55.75
37202;BME280;37799;52.390;6.136;2024-03-25T11:50:19;100662.09;;;13.58;54.67
37202;BME280;37799;52.390;6.136;2024-03-25T11:52:45;100650.66;;;13.63;56.89
37202;BME280;37799;52.390;6.136;2024-03-25T11:55:11;100644.88;;;13.76;56.86
37202;BME280;37799;52.390;6.136;2024-03-25T11:57:40;100650.41;;;14.09;54.71
37202;BME280;37799;52.390;6.136;2024-03-25T12:00:07;100648.75;;;14.66;55.73
37202;BME280;37799;52.390;6.136;2024-03-25T12:02:36;100642.56;;;14.88;53.95
37202;BME280;37799;52.390;6.136;2024-03-25T12:05:01;100648.38;;;15.12;52.69
37202;BME280;37799;52.390;6.136;2024-03-25T12:07:28;100640.75;;;15.07;53.30
37202;BME280;37799;52.390;6.136;2024-03-25T12:09:53;100645.63;;;14.96;54.34
37202;BME280;37799;52.390;6.136;2024-03-25T12:12:37;100639.56;;;14.95;55.11
37202;BME280;37799;52.390;6.136;2024-03-25T12:15:05;100637.19;;;14.91;51.99
37202;BME280;37799;52.390;6.136;2024-03-25T12:17:33;100634.72;;;14.88;52.73
37202;BME280;37799;52.390;6.136;2024-03-25T12:20:05;100621.53;;;14.91;51.93
37202;BME280;37799;52.390;6.136;2024-03-25T12:22:33;100619.50;;;14.79;49.28
37202;BME280;37799;52.390;6.136;2024-03-25T12:25:00;100610.78;;;14.80;50.72
37202;BME280;37799;52.390;6.136;2024-03-25T12:27:27;100620.97;;;15.03;52.90
37202;BME280;37799;52.390;6.136;2024-03-25T12:30:02;100618.53;;;15.17;50.17
37202;BME280;37799;52.390;6.136;2024-03-25T12:32:41;100615.13;;;14.79;50.82
37202;BME280;37799;52.390;6.136;2024-03-25T12:35:16;100602.25;;;14.76;51.44
37202;BME280;37799;52.390;6.136;2024-03-25T12:37:43;100606.06;;;14.88;50.38
37202;BME280;37799;52.390;6.136;2024-03-25T12:40:11;100608.09;;;15.00;49.61
37202;BME280;37799;52.390;6.136;2024-03-25T12:42:37;100603.78;;;14.80;50.43